Time;durP1;ratioP1;P1;durP2;ratioP2;P2;SDS_P1;SDS_P2;PMS_P1;PMS_P2;Temp;Humidity;BMP_temperature;BMP_pressure;BME280_temperature;BME280_humidity;BME280_pressure;Samples;Min_cycle;Max_cycle;Signal;HPM_P1;HPM_P2
2023/02/23 00:01:25;;;;;;;25.88;16.08;;;7.70;99.90;;;;;;5017650;28;20099;-70
2023/02/23 00:03:53;;;;;;;26.40;16.48;;;7.70;99.90;;;;;;5018568;28;20076;-73
2023/02/23 00:06:19;;;;;;;23.60;16.00;;;7.80;99.90;;;;;;5022389;28;20029;-70
2023/02/23 00:08:48;;;;;;;26.65;15.45;;;7.80;99.90;;;;;;5021847;28;20474;-73
2023/02/23 00:11:15;;;;;;;26.40;16.75;;;7.80;99.90;;;;;;5017276;28;20041;-70
2023/02/23 00:13:45;;;;;;;26.67;15.80;;;7.80;99.90;;;;;;5023550;28;20049;-70
2023/02/23 00:16:21;;;;;;;26.80;16.35;;;7.90;99.90;;;;;;5020567;28;20065;-70
2023/02/23 00:18:53;;;;;;;28.95;17.02;;;7.90;99.90;;;;;;5007528;28;20459;-72
2023/02/23 00:21:23;;;;;;;29.30;17.25;;;7.90;99.90;;;;;;5020961;28;20080;-69
2023/02/23 00:23:51;;;;;;;27.45;17.67;;;8.00;99.90;;;;;;5020229;28;20030;-73
2023/02/23 00:26:22;;;;;;;29.88;17.80;;;8.00;99.90;;;;;;5022458;28;20037;-70
2023/02/23 00:28:49;;;;;;;28.23;17.48;;;8.00;99.90;;;;;;5021637;28;20034;-73
2023/02/23 00:31:15;;;;;;;22.73;15.43;;;8.00;99.90;;;;;;5019546;28;20071;-70
2023/02/23 00:33:41;;;;;;;23.95;16.27;;;8.00;99.90;;;;;;5023182;28;20462;-70
2023/02/23 00:36:13;;;;;;;26.00;16.02;;;8.00;99.90;;;;;;5029877;28;20624;-71
2023/02/23 00:38:39;;;;;;;28.25;16.73;;;8.00;99.90;;;;;;5018942;28;20061;-69
2023/02/23 00:41:11;;;;;;;22.65;15.60;;;7.90;99.90;;;;;;5014655;28;20083;-70
2023/02/23 00:43:48;;;;;;;30.02;17.02;;;7.90;99.90;;;;;;5024288;28;20036;-69
2023/02/23 00:46:16;;;;;;;22.15;14.95;;;7.90;99.90;;;;;;5023110;28;20048;-70
2023/02/23 00:48:42;;;;;;;26.33;16.95;;;7.80;99.90;;;;;;5015176;28;20030;-70
2023/02/23 00:51:09;;;;;;;26.15;16.27;;;7.80;99.90;;;;;;5017040;28;20062;-70
2023/02/23 00:53:34;;;;;;;27.60;17.48;;;7.70;99.90;;;;;;5023066;28;20034;-69
2023/02/23 00:56:02;;;;;;;33.05;20.52;;;7.60;99.90;;;;;;4996856;28;20022;-69
2023/02/23 00:58:30;;;;;;;32.63;20.08;;;7.60;99.90;;;;;;5013415;28;20045;-69
2023/02/23 01:00:58;;;;;;;29.77;18.77;;;7.60;99.90;;;;;;5012359;28;20041;-70
2023/02/23 01:03:27;;;;;;;32.55;20.58;;;7.50;99.90;;;;;;5012529;28;20033;-68
2023/02/23 01:05:54;;;;;;;34.55;20.70;;;7.40;99.90;;;;;;5012014;28;20034;-68
2023/02/23 01:08:21;;;;;;;31.10;19.50;;;7.40;99.90;;;;;;5023657;28;20703;-71
2023/02/23 01:10:51;;;;;;;28.88;19.10;;;7.30;99.90;;;;;;5025611;28;20049;-73
2023/02/23 01:13:19;;;;;;;34.88;22.48;;;7.30;99.90;;;;;;5017482;28;20050;-70
2023/02/23 01:15:46;;;;;;;35.10;21.17;;;7.30;99.90;;;;;;5025123;28;20037;-73
2023/02/23 01:18:13;;;;;;;35.35;21.52;;;7.30;99.90;;;;;;5027919;28;20021;-71
2023/02/23 01:20:40;;;;;;;36.10;22.73;;;7.30;99.90;;;;;;5015262;28;20037;-71
2023/02/23 01:23:07;;;;;;;41.08;23.65;;;7.20;99.90;;;;;;5021671;28;20463;-69
2023/02/23 01:25:33;;;;;;;38.10;22.48;;;7.20;99.90;;;;;;5023520;28;20026;-71
2023/02/23 01:28:00;;;;;;;39.33;25.13;;;7.20;99.90;;;;;;5022621;28;20029;-70
2023/02/23 01:30:25;;;;;;;40.28;25.63;;;7.20;99.90;;;;;;5015323;28;20497;-68
2023/02/23 01:32:51;;;;;;;40.72;26.27;;;7.20;99.90;;;;;;5012191;28;20104;-69
2023/02/23 01:35:17;;;;;;;43.92;26.08;;;7.20;99.90;;;;;;5019438;28;20037;-69
2023/02/23 01:37:43;;;;;;;40.67;26.13;;;7.20;99.90;;;;;;5012896;28;20467;-68
2023/02/23 01:40:15;;;;;;;44.92;26.60;;;7.20;99.90;;;;;;5015476;28;20084;-69
2023/02/23 01:42:45;;;;;;;43.53;27.25;;;7.20;99.90;;;;;;5019448;28;20034;-68
2023/02/23 01:45:34;;;;;;;44.65;27.50;;;7.10;99.90;;;;;;5019738;28;20025;-70
2023/02/23 01:48:17;;;;;;;37.53;25.42;;;7.10;99.90;;;;;;5021250;28;20069;-71
2023/02/23 01:50:51;;;;;;;38.15;24.77;;;7.10;99.90;;;;;;5020164;28;20128;-70
2023/02/23 01:53:20;;;;;;;40.05;25.90;;;7.00;99.90;;;;;;5016036;28;20383;-69
2023/02/23 01:55:48;;;;;;;42.17;25.80;;;7.00;99.90;;;;;;5017161;28;20025;-72
2023/02/23 01:58:18;;;;;;;47.15;27.38;;;7.00;99.90;;;;;;5013469;28;20048;-69
2023/02/23 02:00:53;;;;;;;45.10;28.60;;;7.00;99.90;;;;;;5024504;28;20033;-71
2023/02/23 02:03:27;;;;;;;42.30;25.98;;;7.00;99.90;;;;;;5019438;28;20041;-69
2023/02/23 02:05:55;;;;;;;46.55;27.58;;;7.00;99.90;;;;;;5026639;28;20033;-69
2023/02/23 02:08:23;;;;;;;49.38;28.00;;;7.00;99.90;;;;;;5021041;28;20072;-69
2023/02/23 02:10:54;;;;;;;46.35;27.23;;;7.00;99.90;;;;;;5012953;28;20052;-73
2023/02/23 02:13:23;;;;;;;46.25;27.60;;;7.00;99.90;;;;;;5022677;28;20046;-70
2023/02/23 02:16:04;;;;;;;41.05;26.58;;;7.00;99.90;;;;;;5020848;28;20537;-70
2023/02/23 02:18:51;;;;;;;44.33;28.27;;;7.00;99.90;;;;;;5021786;28;20502;-71
2023/02/23 02:21:38;;;;;;;51.17;29.73;;;7.00;99.90;;;;;;5019933;28;20429;-70
2023/02/23 02:24:22;;;;;;;43.83;27.95;;;7.00;99.90;;;;;;5019462;28;20096;-70
2023/02/23 02:27:00;;;;;;;46.72;28.38;;;7.00;99.90;;;;;;5011945;28;20061;-72
2023/02/23 02:29:50;;;;;;;49.08;30.60;;;7.00;99.90;;;;;;5021182;28;20030;-69
2023/02/23 02:32:46;;;;;;;53.65;32.20;;;7.10;99.90;;;;;;5014868;28;20042;-69
2023/02/23 02:35:33;;;;;;;57.10;31.73;;;7.10;99.90;;;;;;5021152;28;20032;-71
2023/02/23 02:38:25;;;;;;;52.28;31.85;;;7.10;99.90;;;;;;5010690;28;20037;-70
2023/02/23 02:40:54;;;;;;;52.85;31.70;;;7.10;99.90;;;;;;5013385;28;20045;-70
2023/02/23 02:43:24;;;;;;;50.78;30.35;;;7.10;99.90;;;;;;5024749;28;20040;-70
2023/02/23 02:45:58;;;;;;;50.40;30.60;;;7.20;99.90;;;;;;5017767;28;20038;-70
2023/02/23 02:48:32;;;;;;;47.97;30.27;;;7.20;99.90;;;;;;5000675;28;20155;-69
2023/02/23 02:51:15;;;;;;;49.53;30.10;;;7.10;99.90;;;;;;5019640;28;20084;-70
2023/02/23 02:53:56;;;;;;;49.28;30.08;;;7.20;99.90;;;;;;5016624;28;20539;-69
2023/02/23 02:56:24;;;;;;;;;;;7.20;99.90;;;;;;5017948;28;20040;-72
2023/02/23 02:58:52;;;;;;;50.90;28.52;;;7.20;99.90;;;;;;5018529;28;19968;-72
2023/02/23 04:18:25;;;;;;;48.83;30.70;;;7.20;99.90;;;;;;5021418;28;20034;-69
2023/02/23 04:20:51;;;;;;;49.05;31.92;;;7.10;99.90;;;;;;5016787;28;20040;-70
2023/02/23 04:23:17;;;;;;;51.00;30.42;;;7.10;99.90;;;;;;5020321;28;20022;-70
2023/02/23 04:25:43;;;;;;;55.92;31.75;;;7.20;99.90;;;;;;5024994;28;20037;-69
2023/02/23 04:28:08;;;;;;;48.90;30.85;;;7.10;99.90;;;;;;5012834;28;20040;-69
2023/02/23 04:30:34;;;;;;;49.30;32.53;;;7.20;99.90;;;;;;5025889;28;20036;-69
2023/02/23 04:33:00;;;;;;;52.50;31.73;;;7.20;99.90;;;;;;5021616;28;20433;-69
2023/02/23 04:35:27;;;;;;;50.80;32.75;;;7.20;99.90;;;;;;5025585;28;20042;-69
2023/02/23 04:37:53;;;;;;;51.78;32.55;;;7.20;99.90;;;;;;5019763;28;20021;-70
2023/02/23 04:40:19;;;;;;;48.17;30.17;;;7.20;99.90;;;;;;5023287;28;20489;-70
2023/02/23 04:42:44;;;;;;;53.22;31.70;;;7.20;99.90;;;;;;5019915;28;20540;-69
2023/02/23 04:45:10;;;;;;;49.38;32.10;;;7.20;99.90;;;;;;5021922;28;20364;-69
2023/02/23 04:47:36;;;;;;;53.03;31.67;;;7.20;99.90;;;;;;5019344;28;20037;-69
2023/02/23 04:50:03;;;;;;;52.90;31.88;;;7.20;99.90;;;;;;5025897;28;20026;-69
2023/02/23 04:52:30;;;;;;;53.08;30.70;;;7.20;99.90;;;;;;5019227;28;20056;-69
2023/02/23 04:54:55;;;;;;;49.35;30.60;;;7.20;99.90;;;;;;4999345;28;20526;-70
2023/02/23 04:57:21;;;;;;;46.92;29.77;;;7.10;99.90;;;;;;5020859;28;20117;-70
2023/02/23 04:59:47;;;;;;;45.75;29.23;;;7.10;99.90;;;;;;5020248;28;20501;-74
2023/02/23 05:02:12;;;;;;;48.67;30.15;;;7.10;99.90;;;;;;5020729;28;20037;-70
2023/02/23 05:04:38;;;;;;;50.38;31.02;;;7.10;99.90;;;;;;5014901;28;20025;-70
2023/02/23 05:07:04;;;;;;;46.67;29.50;;;7.10;99.90;;;;;;5028188;28;20038;-71
2023/02/23 05:09:30;;;;;;;48.30;30.38;;;7.10;99.90;;;;;;5014079;28;20050;-70
2023/02/23 05:11:56;;;;;;;46.58;29.98;;;7.10;99.90;;;;;;5022415;28;20038;-70
2023/02/23 05:14:21;;;;;;;44.33;29.15;;;7.10;99.90;;;;;;5028998;28;20436;-70
2023/02/23 05:16:47;;;;;;;47.40;29.45;;;7.00;99.90;;;;;;5032447;28;20055;-72
2023/02/23 05:19:13;;;;;;;55.97;32.13;;;7.10;99.90;;;;;;5027500;28;20037;-68
2023/02/23 05:21:40;;;;;;;52.30;31.20;;;7.00;99.90;;;;;;5015939;28;20096;-70
2023/02/23 05:24:06;;;;;;;48.15;29.63;;;7.10;99.90;;;;;;5024076;28;20696;-69
2023/02/23 05:26:31;;;;;;;45.63;29.92;;;7.10;99.90;;;;;;5017224;28;20109;-69
2023/02/23 05:28:57;;;;;;;49.55;30.65;;;7.10;99.90;;;;;;5016151;28;20036;-70
2023/02/23 05:31:23;;;;;;;49.00;30.33;;;7.10;99.90;;;;;;5017157;28;20387;-70
2023/02/23 05:33:49;;;;;;;53.28;32.90;;;7.10;99.90;;;;;;5029295;28;20025;-73
2023/02/23 05:36:17;;;;;;;52.22;32.30;;;7.10;99.90;;;;;;5027480;28;20091;-68
2023/02/23 05:38:44;;;;;;;51.45;32.65;;;7.10;99.90;;;;;;5021504;28;20030;-69
2023/02/23 05:41:13;;;;;;;54.95;33.67;;;7.10;99.90;;;;;;5000275;28;20057;-68
2023/02/23 05:43:39;;;;;;;55.58;33.78;;;7.10;99.90;;;;;;5027905;28;20040;-67
2023/02/23 05:46:08;;;;;;;54.88;34.53;;;7.10;99.90;;;;;;5020334;28;20030;-68
2023/02/23 05:48:34;;;;;;;59.17;36.20;;;7.10;99.90;;;;;;5028903;28;20029;-68
2023/02/23 05:51:05;;;;;;;57.28;33.92;;;7.20;99.90;;;;;;5025060;28;20041;-69
2023/02/23 05:53:30;;;;;;;53.63;34.40;;;7.20;99.90;;;;;;5018792;28;20037;-68
2023/02/23 05:55:56;;;;;;;53.55;32.03;;;7.20;99.90;;;;;;5016409;28;20399;-69
2023/02/23 05:58:22;;;;;;;51.53;33.20;;;7.20;99.90;;;;;;5017445;28;20056;-69
2023/02/23 06:00:48;;;;;;;55.22;33.28;;;7.30;99.90;;;;;;5019247;28;20087;-72
2023/02/23 06:03:14;;;;;;;48.92;31.02;;;7.30;99.90;;;;;;5023115;28;20026;-69
2023/02/23 06:05:41;;;;;;;50.58;31.77;;;7.20;99.90;;;;;;5023308;28;20484;-70
2023/02/23 06:08:07;;;;;;;49.63;30.85;;;7.20;99.90;;;;;;5021713;28;20021;-69
2023/02/23 06:10:33;;;;;;;54.85;32.08;;;7.20;99.90;;;;;;5017885;28;20025;-69
2023/02/23 06:12:58;;;;;;;48.20;30.23;;;7.20;99.90;;;;;;4998063;28;20072;-69
2023/02/23 06:15:24;;;;;;;47.30;30.85;;;7.10;99.90;;;;;;5015012;28;20163;-69
2023/02/23 06:17:49;;;;;;;52.55;31.38;;;7.10;99.90;;;;;;5005275;28;20124;-68
2023/02/23 06:20:15;;;;;;;53.47;31.40;;;7.10;99.90;;;;;;5016847;28;20044;-70
2023/02/23 06:22:41;;;;;;;54.58;33.45;;;7.10;99.90;;;;;;5015968;28;20038;-69
2023/02/23 06:25:11;;;;;;;48.92;30.90;;;7.10;99.90;;;;;;5018195;28;20061;-70
2023/02/23 06:27:38;;;;;;;;;;;7.10;99.90;;;;;;5014854;28;20037;-68
2023/02/23 06:30:04;;;;;;;47.42;29.42;;;7.10;99.90;;;;;;5013865;28;20055;-70
2023/02/23 06:32:30;;;;;;;46.20;28.08;;;7.10;99.90;;;;;;5023034;28;20048;-71
2023/02/23 06:34:55;;;;;;;50.22;32.05;;;7.10;99.90;;;;;;4997054;28;20037;-70
2023/02/23 06:37:21;;;;;;;55.47;33.20;;;7.20;99.90;;;;;;5012484;28;20034;-70
2023/02/23 06:39:49;;;;;;;60.22;35.47;;;7.20;99.90;;;;;;5023181;28;20378;-73
2023/02/23 06:42:15;;;;;;;60.50;36.17;;;7.20;99.90;;;;;;5021061;28;20068;-71
2023/02/23 06:44:40;;;;;;;58.53;34.92;;;7.20;99.90;;;;;;5018052;28;20026;-71
2023/02/23 06:47:06;;;;;;;56.33;34.80;;;7.20;99.90;;;;;;5020657;28;20041;-70
2023/02/23 06:49:32;;;;;;;53.17;33.05;;;7.30;99.90;;;;;;5019470;28;20033;-71
2023/02/23 06:51:58;;;;;;;53.10;31.85;;;7.30;99.90;;;;;;5028189;28;20461;-73
2023/02/23 06:54:24;;;;;;;52.75;32.28;;;7.20;99.90;;;;;;5024684;28;20116;-70
2023/02/23 06:56:50;;;;;;;53.72;32.03;;;7.30;99.90;;;;;;5018592;28;20035;-71
2023/02/23 06:59:15;;;;;;;50.00;31.13;;;7.30;99.90;;;;;;5028631;28;20044;-70
2023/02/23 07:01:43;;;;;;;52.85;31.58;;;7.30;99.90;;;;;;5024681;28;20029;-67
2023/02/23 07:04:10;;;;;;;50.97;31.00;;;7.30;99.90;;;;;;5018871;28;20033;-68
2023/02/23 07:06:36;;;;;;;46.42;29.33;;;7.30;99.90;;;;;;5018158;28;20042;-67
2023/02/23 07:09:03;;;;;;;45.42;28.58;;;7.40;99.90;;;;;;5021579;28;20463;-69
2023/02/23 07:11:28;;;;;;;47.38;29.20;;;7.40;99.90;;;;;;5017592;28;20030;-68
2023/02/23 07:13:57;;;;;;;46.45;28.52;;;7.40;99.90;;;;;;5023818;28;20381;-68
2023/02/23 07:16:23;;;;;;;42.13;27.05;;;7.40;99.90;;;;;;5026869;28;20513;-68
2023/02/23 07:18:48;;;;;;;37.72;24.50;;;7.40;99.90;;;;;;5018217;28;20069;-72
2023/02/23 07:21:14;;;;;;;36.67;22.98;;;7.50;99.90;;;;;;5025065;28;20041;-68
2023/02/23 07:23:40;;;;;;;33.40;21.75;;;7.50;99.90;;;;;;5003076;28;20025;-66
2023/02/23 07:26:05;;;;;;;33.58;21.10;;;7.60;99.90;;;;;;5020362;28;20666;-67
2023/02/23 07:28:31;;;;;;;35.13;20.80;;;7.60;99.90;;;;;;5001090;28;20030;-68
2023/02/23 07:30:57;;;;;;;31.20;19.75;;;7.70;99.90;;;;;;5013822;28;20505;-68
2023/02/23 07:33:24;;;;;;;26.75;17.42;;;7.80;99.90;;;;;;5030310;28;20021;-68
2023/02/23 07:35:50;;;;;;;32.65;19.13;;;7.80;99.90;;;;;;5020952;28;20476;-68
2023/02/23 07:38:16;;;;;;;29.33;18.30;;;7.90;99.90;;;;;;5022539;28;20204;-68
2023/02/23 07:40:42;;;;;;;37.78;23.92;;;8.00;99.90;;;;;;5033096;28;20038;-67
2023/02/23 07:43:07;;;;;;;34.72;22.58;;;8.10;99.90;;;;;;5033970;28;20093;-68
2023/02/23 07:45:33;;;;;;;35.17;23.42;;;8.30;99.90;;;;;;5023718;28;20466;-68
2023/02/23 07:47:58;;;;;;;37.95;24.08;;;8.40;99.90;;;;;;5030280;28;20033;-68
2023/02/23 07:50:25;;;;;;;37.38;24.77;;;8.50;99.90;;;;;;5033359;28;20520;-69
2023/02/23 07:52:51;;;;;;;38.03;25.20;;;8.60;99.90;;;;;;5022975;28;20068;-68
2023/02/23 07:55:17;;;;;;;41.90;22.70;;;8.70;99.90;;;;;;5020005;28;20464;-71
2023/02/23 07:57:43;;;;;;;29.85;20.05;;;8.80;99.90;;;;;;5026117;28;20038;-67
2023/02/23 08:00:10;;;;;;;35.88;22.58;;;8.90;99.90;;;;;;5022203;28;20033;-67
2023/02/23 08:02:36;;;;;;;32.58;21.52;;;9.00;99.90;;;;;;5017462;28;20034;-67
2023/02/23 08:05:02;;;;;;;32.78;22.98;;;9.00;99.90;;;;;;5026212;28;20484;-72
2023/02/23 08:07:27;;;;;;;33.22;21.92;;;9.00;99.90;;;;;;5016478;28;20042;-67
2023/02/23 08:09:53;;;;;;;33.08;20.38;;;9.10;99.90;;;;;;5014131;28;20041;-69
2023/02/23 08:12:19;;;;;;;27.67;18.27;;;9.10;99.90;;;;;;5002277;28;20517;-68
2023/02/23 08:14:44;;;;;;;26.42;16.92;;;9.10;99.90;;;;;;5022786;28;20029;-69
2023/02/23 08:17:10;;;;;;;22.33;15.63;;;9.10;99.90;;;;;;5009096;28;20077;-67
2023/02/23 08:19:36;;;;;;;26.48;16.58;;;9.20;99.90;;;;;;5022129;28;20391;-69
2023/02/23 08:22:03;;;;;;;21.45;14.10;;;9.20;99.90;;;;;;5015210;28;20440;-69
2023/02/23 08:24:29;;;;;;;20.40;12.77;;;9.20;99.90;;;;;;5025358;28;20052;-69
2023/02/23 08:26:56;;;;;;;17.25;11.25;;;9.20;99.90;;;;;;5020345;28;20042;-68
2023/02/23 08:29:23;;;;;;;23.30;11.25;;;9.30;99.90;;;;;;5026293;28;20360;-68
2023/02/23 08:31:50;;;;;;;17.48;10.73;;;9.40;99.90;;;;;;5014369;28;20060;-72
2023/02/23 08:34:16;;;;;;;18.10;9.70;;;9.50;99.90;;;;;;5012328;28;20503;-69
2023/02/23 08:36:44;;;;;;;22.52;15.02;;;9.60;99.90;;;;;;5014604;28;20125;-69
2023/02/23 08:39:10;;;;;;;26.38;17.20;;;9.70;99.90;;;;;;5002970;28;20895;-68
2023/02/23 08:41:36;;;;;;;27.50;17.42;;;9.80;99.90;;;;;;5019099;28;20033;-69
2023/02/23 08:44:01;;;;;;;26.00;17.30;;;9.90;99.90;;;;;;5011635;28;20466;-68
2023/02/23 08:46:27;;;;;;;25.73;17.17;;;9.90;99.90;;;;;;5020280;28;20026;-69
2023/02/23 08:48:54;;;;;;;24.48;15.98;;;10.00;99.90;;;;;;5020330;28;20420;-70
2023/02/23 08:51:19;;;;;;;25.58;15.95;;;10.00;99.90;;;;;;5020511;28;20363;-69
2023/02/23 08:53:45;;;;;;;21.98;14.93;;;10.00;99.90;;;;;;5013868;28;20080;-72
2023/02/23 08:56:12;;;;;;;21.27;14.38;;;10.00;99.90;;;;;;5024182;28;20356;-68
2023/02/23 08:58:38;;;;;;;26.40;14.60;;;10.10;99.90;;;;;;5014840;28;20030;-68
2023/02/23 09:01:04;;;;;;;20.15;13.40;;;10.20;99.90;;;;;;5015838;28;20030;-69
2023/02/23 09:03:30;;;;;;;14.18;10.52;;;10.20;99.90;;;;;;5023236;28;20033;-68
2023/02/23 09:06:07;;;;;;;17.48;10.75;;;10.20;99.90;;;;;;5019461;28;20415;-69
2023/02/23 09:08:33;;;;;;;14.23;9.60;;;10.30;99.90;;;;;;5016829;28;20033;-68
2023/02/23 09:10:59;;;;;;;17.75;8.82;;;10.40;99.90;;;;;;5014819;28;20386;-68
2023/02/23 09:13:25;;;;;;;18.65;8.88;;;10.40;99.90;;;;;;5012220;28;20054;-68
2023/02/23 09:15:50;;;;;;;13.38;8.02;;;10.50;99.90;;;;;;5014193;28;20030;-68
2023/02/23 09:18:16;;;;;;;12.85;7.70;;;10.70;99.90;;;;;;5012767;28;20446;-69
2023/02/23 09:20:43;;;;;;;19.65;12.02;;;10.80;99.90;;;;;;5012175;28;20021;-68
2023/02/23 09:23:12;;;;;;;16.35;11.13;;;11.00;99.90;;;;;;5011962;28;20087;-71
2023/02/23 09:25:42;;;;;;;25.45;15.23;;;11.10;99.90;;;;;;5027336;28;20025;-68
2023/02/23 09:28:10;;;;;;;22.67;15.95;;;11.20;99.90;;;;;;4997949;28;20533;-68
2023/02/23 09:30:36;;;;;;;25.13;16.55;;;11.20;99.90;;;;;;5019308;28;20021;-69
2023/02/23 09:33:02;;;;;;;25.08;16.23;;;11.30;99.90;;;;;;5031348;28;20041;-69
2023/02/23 09:35:28;;;;;;;25.17;14.48;;;11.40;99.90;;;;;;5030447;28;20033;-68
2023/02/23 09:37:55;;;;;;;22.77;13.38;;;11.50;99.90;;;;;;5031399;28;20025;-68
2023/02/23 09:40:27;;;;;;;24.10;14.25;;;11.60;99.90;;;;;;5031621;28;20029;-67
2023/02/23 09:42:55;;;;;;;20.33;13.77;;;11.70;99.90;;;;;;5013290;28;20040;-68
2023/02/23 09:45:45;;;;;;;20.40;11.93;;;11.70;99.90;;;;;;5028378;28;20483;-68
2023/02/23 09:48:15;;;;;;;21.27;14.13;;;11.80;99.90;;;;;;4967614;28;20037;-67
2023/02/23 09:50:50;;;;;;;24.15;13.15;;;11.80;99.90;;;;;;5031311;28;20435;-68
2023/02/23 09:53:23;;;;;;;18.45;13.27;;;11.90;99.90;;;;;;5031859;28;20108;-68
2023/02/23 09:55:50;;;;;;;20.50;12.60;;;12.10;99.90;;;;;;5030735;28;20029;-73
2023/02/23 09:58:25;;;;;;;21.85;12.52;;;12.10;99.90;;;;;;5030501;28;20466;-67
2023/02/23 10:01:17;;;;;;;16.27;10.95;;;12.20;99.90;;;;;;5014178;28;20029;-71
2023/02/23 10:03:55;;;;;;;22.60;13.25;;;12.20;99.90;;;;;;4976210;28;20042;-68
2023/02/23 10:06:21;;;;;;;15.50;11.02;;;12.40;99.90;;;;;;5023563;28;20486;-68
2023/02/23 10:08:54;;;;;;;19.65;12.90;;;12.50;99.90;;;;;;5017308;28;20037;-71
2023/02/23 10:11:23;;;;;;;23.77;12.30;;;12.60;99.90;;;;;;5019800;28;20064;-68
2023/02/23 10:13:55;;;;;;;23.77;12.65;;;12.80;99.90;;;;;;5016868;28;20057;-72
2023/02/23 10:16:29;;;;;;;24.27;12.15;;;12.80;99.90;;;;;;5020781;28;20022;-68
2023/02/23 10:19:11;;;;;;;18.10;11.60;;;12.90;99.90;;;;;;5016128;28;20029;-69
2023/02/23 10:21:41;;;;;;;20.15;12.55;;;12.90;99.90;;;;;;5014476;28;20045;-68
2023/02/23 10:24:21;;;;;;;18.52;12.98;;;12.90;99.90;;;;;;5026063;28;20936;-68
2023/02/23 10:27:01;;;;;;;21.77;13.02;;;12.90;99.90;;;;;;5025596;28;20470;-72
2023/02/23 10:29:35;;;;;;;21.05;12.02;;;12.80;99.90;;;;;;5010398;28;20026;-68
2023/02/23 10:32:18;;;;;;;18.60;12.07;;;12.80;99.90;;;;;;5019165;28;20367;-68
2023/02/23 10:34:47;;;;;;;23.60;12.15;;;12.90;99.90;;;;;;5011868;28;20042;-69
2023/02/23 10:37:15;;;;;;;22.00;12.35;;;12.90;99.90;;;;;;5015986;28;20034;-69
2023/02/23 10:39:41;;;;;;;23.13;12.70;;;13.10;99.90;;;;;;5012684;28;20049;-69
2023/02/23 10:42:14;;;;;;;21.58;12.77;;;13.20;99.90;;;;;;5019477;28;20611;-68
2023/02/23 10:44:43;;;;;;;18.67;11.90;;;13.30;99.90;;;;;;5020207;28;20498;-68
2023/02/23 10:47:14;;;;;;;21.30;11.35;;;13.40;99.90;;;;;;5023978;28;20087;-69
2023/02/23 10:49:49;;;;;;;18.15;9.77;;;13.60;99.90;;;;;;5021242;28;20113;-69
2023/02/23 10:52:20;;;;;;;17.33;9.60;;;13.70;99.90;;;;;;5010709;28;20540;-68
2023/02/23 10:54:48;;;;;;;16.33;10.15;;;13.80;99.90;;;;;;5013285;28;20052;-71
2023/02/23 10:57:31;;;;;;;24.58;10.13;;;14.00;99.90;;;;;;5023320;28;20125;-68
2023/02/23 11:00:19;;;;;;;23.05;10.07;;;13.90;99.90;;;;;;5010563;28;20482;-68
2023/02/23 11:02:46;;;;;;;21.23;10.85;;;13.80;99.90;;;;;;5015486;28;20056;-68
2023/02/23 11:05:34;;;;;;;18.52;12.15;;;13.70;99.90;;;;;;5029442;28;20033;-68
2023/02/23 11:08:18;;;;;;;18.67;12.18;;;13.80;99.90;;;;;;5014353;28;20029;-68
2023/02/23 11:11:04;;;;;;;23.63;12.20;;;13.90;99.90;;;;;;5028215;28;20532;-69
2023/02/23 11:13:44;;;;;;;21.92;12.25;;;13.90;99.90;;;;;;5010753;28;20065;-69
2023/02/23 11:16:21;;;;;;;23.15;12.38;;;14.00;99.90;;;;;;5020506;28;20084;-69
2023/02/23 11:18:59;;;;;;;27.20;12.88;;;14.10;99.90;;;;;;5015992;28;20064;-72
2023/02/23 11:21:34;;;;;;;21.92;12.32;;;14.20;99.90;;;;;;5023453;28;20038;-67
2023/02/23 11:24:25;;;;;;;26.80;11.43;;;14.30;99.90;;;;;;5029564;28;20025;-68
2023/02/23 11:26:53;;;;;;;21.15;11.60;;;14.40;99.90;;;;;;5029788;28;20489;-68
2023/02/23 11:29:36;;;;;;;17.83;9.90;;;14.50;99.90;;;;;;5028653;28;20494;-68
2023/02/23 11:32:32;;;;;;;17.50;8.52;;;14.60;99.90;;;;;;5032994;28;20112;-69
2023/02/23 11:35:26;;;;;;;14.07;8.48;;;14.50;99.90;;;;;;5027064;28;20533;-69
2023/02/23 11:37:52;;;;;;;24.52;11.05;;;14.40;99.90;;;;;;5018261;28;20079;-69
2023/02/23 11:40:28;;;;;;;24.02;10.25;;;14.40;99.90;;;;;;5020706;28;20455;-69
2023/02/23 11:43:07;;;;;;;18.08;9.25;;;14.40;99.90;;;;;;5020074;28;20029;-69
2023/02/23 11:45:47;;;;;;;18.13;8.75;;;14.30;99.90;;;;;;5017416;28;20026;-69
2023/02/23 11:48:32;;;;;;;15.18;8.98;;;14.20;99.90;;;;;;5013493;28;20040;-69
2023/02/23 11:50:58;;;;;;;14.40;7.57;;;14.10;99.90;;;;;;5014052;28;20064;-70
2023/02/23 11:53:32;;;;;;;21.45;10.07;;;14.10;99.90;;;;;;5018564;28;20030;-68
2023/02/23 11:56:06;;;;;;;19.35;8.25;;;14.10;99.90;;;;;;5025039;28;20022;-68
2023/02/23 11:58:46;;;;;;;16.65;7.88;;;14.20;99.90;;;;;;4998374;28;20474;-69
2023/02/23 12:01:15;;;;;;;17.00;8.03;;;14.30;99.90;;;;;;5018845;28;20509;-69
2023/02/23 12:03:56;;;;;;;13.38;7.82;;;14.50;99.90;;;;;;5015495;28;20029;-69
2023/02/23 12:06:32;;;;;;;18.23;7.90;;;14.60;99.90;;;;;;5014114;28;20038;-68
2023/02/23 12:09:05;;;;;;;13.52;7.90;;;14.70;99.90;;;;;;5016349;28;20032;-69
2023/02/23 12:11:38;;;;;;;18.02;8.00;;;14.90;99.90;;;;;;5015452;28;20394;-69
2023/02/23 12:14:17;;;;;;;16.23;8.00;;;15.00;99.90;;;;;;5014185;28;20084;-68
2023/02/23 12:16:48;;;;;;;12.93;6.50;;;15.10;99.90;;;;;;5013575;28;20076;-69
2023/02/23 12:19:40;;;;;;;18.67;7.05;;;15.00;99.90;;;;;;5020180;28;20037;-70
2023/02/23 12:22:17;;;;;;;19.17;6.78;;;15.00;99.90;;;;;;5003203;28;20034;-69
2023/02/23 12:24:50;;;;;;;12.20;6.07;;;14.90;99.90;;;;;;5023544;28;20030;-68
2023/02/23 12:27:25;;;;;;;14.77;5.97;;;14.80;99.90;;;;;;5015659;28;20053;-69
2023/02/23 12:29:59;;;;;;;14.73;7.28;;;14.70;99.90;;;;;;5016073;28;20044;-70
2023/02/23 12:32:52;;;;;;;15.68;6.38;;;14.50;99.90;;;;;;5025862;28;20475;-69
2023/02/23 12:35:30;;;;;;;10.63;5.38;;;14.40;99.90;;;;;;5014010;28;20018;-69
2023/02/23 12:38:14;;;;;;;10.63;4.82;;;14.40;99.90;;;;;;5017564;28;20037;-70
2023/02/23 12:40:43;;;;;;;10.95;5.90;;;14.30;99.90;;;;;;5015127;28;20033;-68
2023/02/23 12:43:38;;;;;;;11.65;5.32;;;14.20;99.90;;;;;;5032406;28;20022;-69
2023/02/23 12:46:13;;;;;;;14.00;5.53;;;14.20;99.90;;;;;;5031250;28;20513;-68
2023/02/23 12:49:06;;;;;;;12.07;5.97;;;14.10;99.90;;;;;;5031096;28;20033;-69
2023/02/23 12:51:40;;;;;;;15.18;6.25;;;14.20;99.90;;;;;;5016265;28;20057;-70
2023/02/23 12:54:10;;;;;;;9.68;5.43;;;14.10;99.90;;;;;;5024321;28;20754;-69
2023/02/23 12:57:10;;;;;;;10.05;5.10;;;14.20;99.90;;;;;;5020879;28;20039;-69
2023/02/23 12:59:37;;;;;;;;;;;14.20;99.90;;;;;;5017699;28;20022;-69
2023/02/23 13:02:25;;;;;;;11.95;5.20;;;14.20;99.90;;;;;;5017529;28;20286;-69
2023/02/23 13:04:56;;;;;;;10.75;4.53;;;14.20;99.90;;;;;;5012677;28;20034;-69
2023/02/23 13:07:37;;;;;;;12.07;5.32;;;14.20;99.90;;;;;;5016389;28;20486;-68
2023/02/23 13:10:39;;;;;;;10.90;4.88;;;14.30;99.90;;;;;;5026269;28;20026;-68
2023/02/23 13:13:27;;;;;;;11.32;3.97;;;14.30;99.90;;;;;;5016296;28;20049;-68
2023/02/23 13:16:06;;;;;;;10.68;4.25;;;14.30;99.90;;;;;;5018835;28;20029;-69
2023/02/23 13:19:05;;;;;;;9.05;5.00;;;14.30;99.90;;;;;;5026039;28;20114;-69
2023/02/23 13:21:36;;;;;;;8.95;4.03;;;14.30;99.90;;;;;;5012163;28;20040;-68
2023/02/23 13:24:20;;;;;;;9.25;4.10;;;14.30;99.90;;;;;;5016726;28;20037;-68
2023/02/23 13:27:05;;;;;;;7.30;4.15;;;14.30;99.90;;;;;;5016080;28;20030;-72
2023/02/23 13:29:42;;;;;;;8.43;4.10;;;14.30;99.90;;;;;;5022642;28;20088;-68
2023/02/23 13:32:16;;;;;;;12.68;4.88;;;14.20;99.90;;;;;;5016896;28;20605;-68
2023/02/23 13:35:05;;;;;;;9.57;4.72;;;14.20;99.90;;;;;;5013006;28;20136;-69
2023/02/23 13:38:14;;;;;;;10.43;5.03;;;14.10;99.90;;;;;;5022618;28;20127;-69
2023/02/23 13:40:58;;;;;;;13.20;5.85;;;14.00;99.90;;;;;;5026230;28;20079;-70
2023/02/23 13:43:27;;;;;;;9.85;5.95;;;13.90;99.90;;;;;;5017055;28;20021;-69
2023/02/23 13:46:32;;;;;;;14.10;7.45;;;14.00;99.90;;;;;;5022833;28;20053;-70
2023/02/23 13:49:29;;;;;;;12.45;6.68;;;13.90;99.90;;;;;;4998798;28;20455;-70
2023/02/23 13:51:59;;;;;;;10.77;6.82;;;13.90;99.90;;;;;;5029496;28;20367;-69
2023/02/23 13:54:31;;;;;;;17.63;7.55;;;13.70;99.90;;;;;;5031442;28;20036;-69
2023/02/23 13:57:04;;;;;;;15.82;7.72;;;13.70;99.90;;;;;;5013983;28;20120;-68
2023/02/23 13:59:37;;;;;;;17.55;7.65;;;13.60;99.90;;;;;;5025010;28;20038;-68
2023/02/23 14:02:22;;;;;;;15.23;8.02;;;13.50;99.90;;;;;;5023641;28;20458;-69
2023/02/23 14:04:49;;;;;;;13.48;7.65;;;13.50;99.90;;;;;;5030694;28;20462;-72
2023/02/23 14:07:29;;;;;;;10.77;7.53;;;13.40;99.90;;;;;;5030018;28;20049;-69
2023/02/23 14:10:05;;;;;;;13.27;7.60;;;13.30;99.90;;;;;;5017498;28;20034;-70
2023/02/23 14:12:38;;;;;;;14.45;7.55;;;13.30;99.90;;;;;;5019480;28;20111;-69
2023/02/23 14:15:26;;;;;;;12.30;6.93;;;13.30;99.90;;;;;;5021681;28;20088;-69